createdAt,value
2019-04-23T00:00:38.014Z,40.70
2019-04-23T00:02:53.499Z,40.50
2019-04-23T00:05:40.841Z,40.50
2019-04-23T00:08:07.680Z,40.30
2019-04-23T00:10:53.383Z,40.50
2019-04-23T00:12:59.187Z,40.60
2019-04-23T00:15:54.597Z,40.70
2019-04-23T00:18:22.477Z,40.60
2019-04-23T00:20:57.721Z,40.70
2019-04-23T00:23:25.294Z,40.70
2019-04-23T00:26:17.317Z,40.70
2019-04-23T00:31:09.681Z,41.10
2019-04-23T00:33:29.695Z,41.10
2019-04-23T00:36:03.169Z,41.10
2019-04-23T00:38:41.773Z,41.10
2019-04-23T00:43:52.644Z,41.30
2019-04-23T00:46:09.577Z,41.50
2019-04-23T00:48:54.357Z,41.40
2019-04-23T00:51:20.299Z,41.50
2019-04-23T00:53:43.656Z,41.70
2019-04-23T00:56:32.156Z,41.60
2019-04-23T00:58:50.013Z,41.90
2019-04-23T01:01:18.057Z,42.20
2019-04-23T01:03:55.099Z,42.30
2019-04-23T01:08:52.336Z,42.30
2019-04-23T01:11:23.481Z,42.40
2019-04-23T01:14:01.109Z,42.60
2019-04-23T01:16:28.392Z,42.40
2019-04-23T01:19:13.625Z,42.20
2019-04-23T01:21:30.619Z,42.40
2019-04-23T01:24:22.963Z,42.60
2019-04-23T01:30:04.782Z,42.70
2019-04-23T01:32:31.750Z,42.90
2019-04-23T01:35:13.880Z,43.10
2019-04-23T01:37:36.997Z,43.10
2019-04-23T01:40:11.861Z,43.40
2019-04-23T01:42:40.470Z,43.50
2019-04-23T01:45:18.413Z,43.40
2019-04-23T01:47:59.619Z,43.60
2019-04-23T01:50:20.421Z,43.60
2019-04-23T01:55:21.369Z,44.00
2019-04-23T01:57:57.846Z,43.80
2019-04-23T02:00:22.761Z,44.50
2019-04-23T02:02:57.840Z,43.90
2019-04-23T02:08:01.492Z,44.80
2019-04-23T02:10:39.479Z,44.40
2019-04-23T02:13:03.810Z,44.80
2019-04-23T02:15:38.180Z,44.70
2019-04-23T02:20:46.110Z,45.10
2019-04-23T02:23:18.614Z,45.10
2019-04-23T02:28:17.073Z,45.40
2019-04-23T02:31:12.188Z,45.50
2019-04-23T02:38:44.329Z,45.70
2019-04-23T02:43:21.816Z,45.50
2019-04-23T02:46:06.065Z,45.60
2019-04-23T02:48:49.469Z,45.90
2019-04-23T02:51:08.973Z,46.00
2019-04-23T02:56:15.298Z,46.20
2019-04-23T02:58:43.879Z,46.30
2019-04-23T03:03:58.017Z,46.50
2019-04-23T03:08:46.407Z,47.40
2019-04-23T03:14:09.564Z,46.90
2019-04-23T03:24:38.902Z,47.10
2019-04-23T03:27:19.236Z,47.10
2019-04-23T03:29:51.243Z,47.30
2019-04-23T03:37:23.342Z,47.50
2019-04-23T03:40:01.897Z,47.70
2019-04-23T03:42:17.338Z,47.20
2019-04-23T03:47:24.086Z,47.70
2019-04-23T03:49:55.549Z,47.80
2019-04-23T03:52:31.357Z,48.00
2019-04-23T03:55:01.570Z,47.90
2019-04-23T04:00:02.531Z,48.30
2019-04-23T04:02:44.017Z,48.60
2019-04-23T04:05:00.645Z,48.60
2019-04-23T04:09:59.300Z,48.80
2019-04-23T04:12:34.981Z,48.60
2019-04-23T04:15:25.112Z,48.70
2019-04-23T04:17:50.304Z,48.70
2019-04-23T04:20:15.190Z,48.90
2019-04-23T04:25:32.201Z,48.80
2019-04-23T04:27:56.061Z,49.00
2019-04-23T04:30:22.231Z,49.20
2019-04-23T04:32:56.548Z,49.30
2019-04-23T04:35:25.054Z,49.40
2019-04-23T04:38:10.727Z,49.30
2019-04-23T04:40:29.486Z,49.60
2019-04-23T04:48:09.911Z,49.40
2019-04-23T04:50:28.449Z,50.10
2019-04-23T04:55:41.774Z,49.80
2019-04-23T05:06:11.340Z,49.50
2019-04-23T05:08:28.944Z,49.50
2019-04-23T05:13:41.178Z,49.70
2019-04-23T05:15:50.182Z,49.70
2019-04-23T05:18:38.485Z,49.40
2019-04-23T05:21:20.226Z,49.80
2019-04-23T05:23:43.057Z,49.40
2019-04-23T05:26:21.074Z,49.60
2019-04-23T05:28:55.939Z,49.40
2019-04-23T05:31:18.658Z,49.80
2019-04-23T05:33:52.214Z,49.50
2019-04-23T05:38:58.988Z,49.90
2019-04-23T05:48:59.833Z,50.00
2019-04-23T05:51:38.805Z,50.20
2019-04-23T05:56:32.385Z,50.40
2019-04-23T05:59:08.757Z,50.30
2019-04-23T06:04:24.864Z,51.20
2019-04-23T06:09:14.209Z,50.70
2019-04-23T06:11:52.617Z,50.90
2019-04-23T06:19:18.736Z,51.10
2019-04-23T06:26:57.457Z,50.90
2019-04-23T06:29:26.012Z,50.90
2019-04-23T06:31:53.988Z,50.80
2019-04-23T06:34:31.123Z,50.90
2019-04-23T06:36:57.280Z,51.00
2019-04-23T06:39:39.649Z,50.70
2019-04-23T06:42:04.548Z,51.00
2019-04-23T06:44:46.534Z,50.60
2019-04-23T06:47:16.311Z,50.40
2019-04-23T06:49:50.915Z,50.20
2019-04-23T06:52:18.419Z,50.00
2019-04-23T06:54:58.024Z,49.90
2019-04-23T06:57:23.808Z,49.90
2019-04-23T06:59:55.554Z,49.40
2019-04-23T07:02:27.289Z,49.40
2019-04-23T07:07:43.034Z,50.00
2019-04-23T07:09:57.912Z,49.80
2019-04-23T07:12:30.988Z,49.90
2019-04-23T07:15:14.663Z,49.10
2019-04-23T07:17:30.983Z,49.30
2019-04-23T07:20:13.164Z,49.60
2019-04-23T07:22:41.353Z,49.50
2019-04-23T07:25:12.866Z,50.10
2019-04-23T07:27:40.462Z,49.20
2019-04-23T07:30:19.149Z,49.50
2019-04-23T07:37:57.215Z,49.70
2019-04-23T07:43:03.253Z,49.20
2019-04-23T07:45:35.406Z,48.90
2019-04-23T07:50:42.404Z,48.50
2019-04-23T07:58:22.200Z,48.20
2019-04-23T08:05:49.548Z,47.70
2019-04-23T08:08:16.812Z,47.80
2019-04-23T08:13:47.645Z,47.70
2019-04-23T08:16:23.370Z,47.30
2019-04-23T08:18:49.559Z,47.50
2019-04-23T08:21:16.226Z,47.50
2019-04-23T08:26:44.702Z,46.50
2019-04-23T08:29:28.071Z,46.90
2019-04-23T08:32:00.664Z,47.20
2019-04-23T08:34:29.683Z,47.00
2019-04-23T08:36:58.216Z,46.60
2019-04-23T08:39:37.244Z,46.90
2019-04-23T08:42:25.031Z,46.40
2019-04-23T08:44:36.926Z,46.40
2019-04-23T08:52:17.200Z,46.40
2019-04-23T08:55:01.567Z,46.60
2019-04-23T08:57:22.594Z,46.30
2019-04-23T08:59:47.579Z,46.40
2019-04-23T09:02:30.813Z,46.50
2019-04-23T09:10:14.598Z,46.20
2019-04-23T09:12:45.411Z,46.80
2019-04-23T09:14:58.432Z,46.50
2019-04-23T09:17:37.564Z,46.90
2019-04-23T09:20:18.510Z,46.50
2019-04-23T09:22:36.437Z,46.90
2019-04-23T09:25:18.515Z,47.40
2019-04-23T09:27:52.651Z,46.90
2019-04-23T09:32:44.978Z,46.90
2019-04-23T09:35:29.287Z,46.60
2019-04-23T09:38:11.468Z,46.80
2019-04-23T09:41:08.716Z,46.50
2019-04-23T09:43:31.560Z,47.20
2019-04-23T09:46:13.712Z,47.20
2019-04-23T09:48:46.537Z,46.90
2019-04-23T09:51:07.845Z,46.80
2019-04-23T09:53:57.997Z,46.70
2019-04-23T09:56:05.001Z,46.80
2019-04-23T09:58:48.431Z,46.70
2019-04-23T10:03:46.267Z,46.20
2019-04-23T10:06:16.131Z,45.60
2019-04-23T10:08:46.482Z,45.50
2019-04-23T10:11:11.633Z,45.90
2019-04-23T10:13:42.832Z,45.50
2019-04-23T10:16:17.013Z,46.00
2019-04-23T10:18:44.989Z,46.20
2019-04-23T10:21:15.521Z,46.00
2019-04-23T10:23:47.501Z,45.50
2019-04-23T10:26:17.559Z,45.90
2019-04-23T10:28:56.723Z,46.50
2019-04-23T10:31:27.936Z,46.60
2019-04-23T10:33:58.068Z,46.30
2019-04-23T10:36:31.713Z,46.00
2019-04-23T10:39:07.440Z,45.80
2019-04-23T10:41:35.299Z,45.40
2019-04-23T10:44:12.967Z,46.10
2019-04-23T10:47:17.240Z,45.90
2019-04-23T10:50:05.513Z,45.60
2019-04-23T10:52:41.074Z,45.90
2019-04-23T10:59:53.656Z,45.50
2019-04-23T11:02:40.237Z,45.40
2019-04-23T11:15:45.063Z,44.40
2019-04-23T11:17:58.319Z,44.20
2019-04-23T11:20:30.273Z,44.50
2019-04-23T11:22:50.938Z,45.10
2019-04-23T11:25:31.280Z,45.10
2019-04-23T11:36:06.211Z,44.90
2019-04-23T11:38:38.867Z,44.30
2019-04-23T11:40:55.554Z,43.50
2019-04-23T11:43:17.921Z,43.60
2019-04-23T11:48:33.300Z,43.90
2019-04-23T11:51:24.111Z,43.60
2019-04-23T11:53:20.942Z,43.80
2019-04-23T11:58:28.445Z,44.80
2019-04-23T12:03:48.940Z,43.90
2019-04-23T12:06:34.367Z,44.10
2019-04-23T12:09:25.946Z,44.40
2019-04-23T12:17:13.356Z,44.10
2019-04-23T12:29:44.037Z,44.00
2019-04-23T12:32:43.090Z,43.40
2019-04-23T12:42:55.536Z,43.90
2019-04-23T12:48:02.202Z,44.20
2019-04-23T12:50:41.685Z,44.20
2019-04-23T12:55:27.758Z,43.80
2019-04-23T12:58:32.238Z,43.30
2019-04-23T13:00:25.692Z,42.90
2019-04-23T13:02:59.381Z,43.50
2019-04-23T13:07:58.501Z,43.50
2019-04-23T13:18:14.828Z,42.80
2019-04-23T13:20:36.896Z,42.60
2019-04-23T13:23:16.958Z,41.20
2019-04-23T13:25:57.091Z,41.10
2019-04-23T13:28:35.743Z,41.30
2019-04-23T13:31:12.600Z,41.00
2019-04-23T13:41:17.160Z,40.80
2019-04-23T13:43:47.102Z,41.10
2019-04-23T13:48:42.248Z,40.20
2019-04-23T13:51:25.677Z,40.20
2019-04-23T13:54:13.880Z,40.00
2019-04-23T14:01:32.288Z,40.30
2019-04-23T14:04:07.811Z,39.90
2019-04-23T14:06:36.681Z,40.50
2019-04-23T14:09:19.942Z,39.30
2019-04-23T14:11:30.868Z,39.50
2019-04-23T14:14:16.731Z,39.40
2019-04-23T14:19:32.044Z,39.00
2019-04-23T14:21:45.193Z,39.00
2019-04-23T14:26:48.304Z,38.30
2019-04-23T14:29:22.923Z,37.80
2019-04-23T14:32:04.500Z,37.10
2019-04-23T14:34:51.632Z,36.80
2019-04-23T14:37:13.306Z,35.90
2019-04-23T14:39:31.753Z,35.60
2019-04-23T14:42:15.410Z,35.10
2019-04-23T14:44:36.523Z,35.30
2019-04-23T14:47:18.440Z,34.20
2019-04-23T14:50:09.309Z,34.70
2019-04-23T14:52:14.556Z,34.20
2019-04-23T14:55:27.947Z,33.60
2019-04-23T14:57:24.718Z,33.00
2019-04-23T14:59:54.770Z,32.90
2019-04-23T15:02:28.670Z,33.00
2019-04-23T15:04:56.427Z,32.30
2019-04-23T15:10:01.459Z,32.20
2019-04-23T15:12:30.183Z,31.80
2019-04-23T15:15:06.512Z,31.70
2019-04-23T15:17:28.493Z,31.50
2019-04-23T15:20:08.163Z,32.00
2019-04-23T15:22:48.131Z,32.10
2019-04-23T15:25:21.452Z,32.30
2019-04-23T15:30:00.839Z,32.10
2019-04-23T15:38:24.645Z,33.20
2019-04-23T15:40:20.997Z,33.40
2019-04-23T15:48:00.594Z,32.10
2019-04-23T15:50:38.526Z,32.40
2019-04-23T15:55:44.418Z,31.70
2019-04-23T15:58:09.885Z,32.20
2019-04-23T16:00:25.912Z,32.60
2019-04-23T16:02:34.133Z,32.90
2019-04-23T16:05:08.574Z,33.10
2019-04-23T16:07:59.486Z,33.80
2019-04-23T16:10:37.709Z,35.10
2019-04-23T16:13:13.018Z,36.00
2019-04-23T16:15:45.481Z,36.90
2019-04-23T16:18:31.292Z,37.20
2019-04-23T16:21:00.862Z,38.20
2019-04-23T16:23:26.466Z,38.70
2019-04-23T16:26:00.179Z,39.10
2019-04-23T16:28:27.247Z,39.40
2019-04-23T16:31:05.965Z,40.20
2019-04-23T16:33:48.851Z,40.40
2019-04-23T16:36:19.701Z,40.60
2019-04-23T16:38:55.604Z,40.60
2019-04-23T16:43:57.790Z,41.60
2019-04-23T16:46:39.161Z,41.10
2019-04-23T16:49:09.003Z,41.30
2019-04-23T16:51:29.645Z,41.60
2019-04-23T16:54:01.691Z,41.80
2019-04-23T16:59:08.750Z,42.80
2019-04-23T17:01:24.937Z,42.60
2019-04-23T17:04:15.108Z,42.60
2019-04-23T17:06:39.758Z,42.80
2019-04-23T17:09:15.830Z,43.00
2019-04-23T17:11:44.807Z,43.20
2019-04-23T17:14:16.336Z,43.40
2019-04-23T17:16:38.375Z,44.40
2019-04-23T17:19:17.675Z,43.90
2019-04-23T17:27:03.770Z,44.90
2019-04-23T17:29:21.511Z,45.10
2019-04-23T17:31:53.675Z,45.10
2019-04-23T17:34:35.015Z,45.40
2019-04-23T17:39:57.176Z,46.00
2019-04-23T17:47:47.900Z,46.90
2019-04-23T17:50:28.800Z,47.00
2019-04-23T17:52:52.922Z,47.60
2019-04-23T17:55:16.725Z,47.80
2019-04-23T17:57:50.125Z,47.80
2019-04-23T18:00:28.818Z,48.20
2019-04-23T18:05:18.134Z,48.70
2019-04-23T18:10:27.562Z,49.20
2019-04-23T18:12:57.863Z,49.40
2019-04-23T18:15:17.686Z,49.70
2019-04-23T18:18:07.071Z,50.20
2019-04-23T18:20:43.999Z,50.20
2019-04-23T18:23:09.977Z,50.50
2019-04-23T18:25:59.698Z,50.70
2019-04-23T18:28:35.513Z,50.80
2019-04-23T18:31:19.817Z,51.00
2019-04-23T18:34:12.518Z,51.30
2019-04-23T18:36:32.777Z,51.40
2019-04-23T18:39:07.198Z,51.70
2019-04-23T18:41:42.815Z,51.80
2019-04-23T18:44:14.051Z,52.10
2019-04-23T18:46:43.540Z,52.40
2019-04-23T18:49:10.914Z,52.50
2019-04-23T18:51:58.137Z,52.60
2019-04-23T18:54:15.255Z,52.80
2019-04-23T18:57:04.504Z,52.60
2019-04-23T19:02:02.541Z,52.50
2019-04-23T19:04:42.324Z,52.20
2019-04-23T19:06:45.716Z,52.10
2019-04-23T19:10:10.729Z,51.90
2019-04-23T19:12:30.172Z,51.90
2019-04-23T19:15:09.534Z,51.70
2019-04-23T19:20:04.364Z,52.10
2019-04-23T19:22:38.070Z,52.10
2019-04-23T19:25:09.597Z,51.90
2019-04-23T19:27:40.628Z,52.00
2019-04-23T19:30:16.089Z,52.30
2019-04-23T19:32:48.882Z,52.90
2019-04-23T19:35:23.900Z,52.20
2019-04-23T19:38:01.535Z,52.30
2019-04-23T19:40:26.000Z,52.30
2019-04-23T19:43:01.094Z,52.30
2019-04-23T19:45:32.698Z,52.30
2019-04-23T19:47:58.764Z,52.40
2019-04-23T19:50:32.919Z,52.50
2019-04-23T19:53:14.279Z,52.70
2019-04-23T19:55:41.677Z,52.60
2019-04-23T19:58:04.248Z,52.80
2019-04-23T20:00:46.015Z,52.80
2019-04-23T20:03:18.502Z,53.20
2019-04-23T20:05:41.483Z,53.20
2019-04-23T20:08:17.424Z,53.40
2019-04-23T20:10:44.600Z,53.40
2019-04-23T20:13:21.842Z,53.60
2019-04-23T20:15:59.495Z,53.80
2019-04-23T20:18:29.154Z,53.80
2019-04-23T20:20:49.597Z,53.90
2019-04-23T20:23:38.383Z,54.10
2019-04-23T20:26:13.577Z,54.20
2019-04-23T20:31:12.218Z,54.40
2019-04-23T20:33:59.140Z,54.90
2019-04-23T20:36:14.640Z,54.30
2019-04-23T20:38:44.793Z,53.80
2019-04-23T20:41:15.380Z,54.30
2019-04-23T20:43:49.123Z,54.60
2019-04-23T20:48:50.243Z,54.40
2019-04-23T20:51:16.362Z,54.50
2019-04-23T20:53:57.409Z,54.60
2019-04-23T20:56:30.103Z,54.60
2019-04-23T20:58:59.617Z,54.60
2019-04-23T21:01:37.234Z,54.80
2019-04-23T21:04:00.049Z,54.80
2019-04-23T21:06:37.697Z,55.10
2019-04-23T21:11:47.976Z,55.30
2019-04-23T21:16:45.085Z,55.70
2019-04-23T21:19:25.135Z,55.70
2019-04-23T21:21:55.144Z,55.70
2019-04-23T21:24:27.199Z,55.80
2019-04-23T21:26:59.855Z,56.00
2019-04-23T21:29:25.854Z,56.00
2019-04-23T21:32:08.852Z,56.10
2019-04-23T21:34:34.244Z,56.20
2019-04-23T21:37:08.805Z,56.30
2019-04-23T21:40:14.008Z,56.30
2019-04-23T21:42:35.685Z,56.50
2019-04-23T21:44:53.946Z,56.60
2019-04-23T21:47:36.625Z,56.80
2019-04-23T21:50:12.307Z,56.90
2019-04-23T21:52:48.989Z,57.10
2019-04-23T21:57:50.317Z,57.10
2019-04-23T22:00:02.485Z,57.20
2019-04-23T22:05:09.436Z,57.30
2019-04-23T22:07:56.685Z,57.60
2019-04-23T22:10:15.357Z,57.70
2019-04-23T22:13:00.520Z,57.80
2019-04-23T22:15:14.646Z,57.70
2019-04-23T22:17:44.833Z,57.70
2019-04-23T22:20:25.922Z,57.70
2019-04-23T22:25:21.605Z,57.90
2019-04-23T22:27:54.221Z,58.00
2019-04-23T22:35:20.337Z,58.50
2019-04-23T22:38:08.551Z,58.60
2019-04-23T22:40:25.099Z,58.60
2019-04-23T22:45:43.222Z,58.70
2019-04-23T22:48:11.378Z,58.70
2019-04-23T22:50:48.517Z,58.80
2019-04-23T22:55:49.418Z,59.00
2019-04-23T22:58:36.894Z,59.10
2019-04-23T23:01:07.313Z,59.30
2019-04-23T23:06:11.048Z,59.60
2019-04-23T23:08:52.313Z,59.70
2019-04-23T23:11:02.347Z,59.80
2019-04-23T23:16:07.178Z,59.80
2019-04-23T23:18:53.792Z,59.80
2019-04-23T23:21:12.305Z,59.80
2019-04-23T23:31:16.311Z,60.10
2019-04-23T23:33:55.596Z,60.20
2019-04-23T23:36:25.449Z,60.40
2019-04-23T23:39:01.004Z,60.20
2019-04-23T23:41:28.804Z,60.30
2019-04-23T23:44:20.898Z,60.40
2019-04-23T23:51:39.745Z,60.70
2019-04-23T23:56:58.779Z,60.70
2019-04-23T23:59:18.048Z,60.80
